Main page
METAR-TAF:

METAR-TAF

Airports :

Zeltweg, Austria

Zeltweg Air Base

latitude: 47-12N, longitude: 014-45E, elevation: 677 m

Current weather observation

The report was made 30 minutes ago, at 13:50 UTC
Wind 10 kt from the Southeast
Temperature 25°C
Humidity 34%
Pressure 1021 hPa

METAR: LOXZ 281350Z 13010KT 50KM FEW070CU 25/08 Q1021 NOSIG

Time: 16:20 (14:20 UTC)

Forecast

The report was made 3 hours and 5 minutes ago, at 11:15 UTC
Forecast valid from 28 at 12 UTC to 28 at 21 UTC
Wind 3 kt from variable directions
Visibility 10 km or more
Few clouds at a height of 6000 ft
Temporary
from 28 at 12 UTC to 28 at 18 UTC
Wind 8 kt from the East/Southeast

TAF: LOXZ 281115Z 2812/2821 VRB03KT 9999 FEW060 TEMPO 2812/2818 12008KT

Weather observations and forecasts of more than 4000 airports (METAR and TAF reports).

The available stations are represented by yellow and red dots on the map.

Hover mouse over dot to see the name of the station.

Then click to see weather observations and forecasts.

To change the map : click on the green buttons with a black cross to zoom in, on the green button with a dash to zoom out, or on the green arrows for adjacent maps.


METAR-TAF: